createdAt,value
2019-01-27T00:01:56.941Z,7.61
2019-01-27T00:04:28.951Z,7.76
2019-01-27T00:07:00.867Z,7.82
2019-01-27T00:09:35.389Z,7.80
2019-01-27T00:12:07.401Z,7.83
2019-01-27T00:14:39.439Z,7.84
2019-01-27T00:17:11.783Z,7.87
2019-01-27T00:19:43.874Z,7.81
2019-01-27T00:22:15.853Z,7.81
2019-01-27T00:24:47.962Z,7.80
2019-01-27T00:27:19.945Z,7.78
2019-01-27T00:29:51.933Z,7.68
2019-01-27T00:32:23.829Z,7.74
2019-01-27T00:34:55.855Z,7.89
2019-01-27T00:37:27.798Z,8.01
2019-01-27T00:39:59.764Z,8.02
2019-01-27T00:42:31.713Z,8.06
2019-01-27T00:45:03.680Z,8.07
2019-01-27T00:47:35.599Z,8.16
2019-01-27T00:50:07.911Z,8.16
2019-01-27T00:52:40.079Z,8.12
2019-01-27T00:55:15.219Z,8.15
2019-01-27T00:57:47.274Z,8.29
2019-01-27T01:00:22.380Z,8.31
2019-01-27T01:02:54.374Z,8.19
2019-01-27T01:05:29.517Z,8.29
2019-01-27T01:08:01.609Z,8.50
2019-01-27T01:10:33.847Z,8.47
2019-01-27T01:13:06.995Z,8.28
2019-01-27T01:15:39.105Z,8.25
2019-01-27T01:18:11.897Z,8.35
2019-01-27T01:20:43.960Z,8.43
2019-01-27T01:23:16.486Z,8.47
2019-01-27T01:25:48.650Z,8.44
2019-01-27T01:28:22.091Z,8.37
2019-01-27T01:30:54.068Z,8.52
2019-01-27T01:33:26.066Z,8.59
2019-01-27T01:35:58.254Z,8.64
2019-01-27T01:38:30.205Z,8.61
2019-01-27T01:41:02.325Z,8.71
2019-01-27T01:43:34.301Z,8.85
2019-01-27T01:46:06.652Z,8.92
2019-01-27T01:48:38.536Z,8.79
2019-01-27T01:51:10.600Z,8.75
2019-01-27T01:53:42.692Z,8.84
2019-01-27T01:56:15.074Z,8.88
2019-01-27T01:58:47.025Z,8.96
2019-01-27T02:01:19.151Z,8.91
2019-01-27T02:03:51.319Z,8.88
2019-01-27T02:06:23.326Z,8.78
2019-01-27T02:08:55.288Z,8.77
2019-01-27T02:11:27.194Z,8.86
2019-01-27T02:13:59.213Z,8.91
2019-01-27T02:16:31.182Z,8.81
2019-01-27T02:19:03.110Z,8.90
2019-01-27T02:21:37.083Z,8.90
2019-01-27T02:24:09.280Z,8.98
2019-01-27T02:26:42.443Z,8.89
2019-01-27T02:29:14.376Z,9.05
2019-01-27T02:31:47.767Z,8.98
2019-01-27T02:34:19.672Z,9.07
2019-01-27T02:36:51.628Z,9.09
2019-01-27T02:39:23.602Z,9.08
2019-01-27T02:41:55.511Z,9.15
2019-01-27T02:44:27.468Z,9.20
2019-01-27T02:46:59.416Z,9.23
2019-01-27T02:49:33.280Z,9.27
2019-01-27T02:52:06.139Z,9.28
2019-01-27T02:54:38.166Z,9.19
2019-01-27T02:57:10.214Z,9.16
2019-01-27T02:59:42.284Z,9.21
2019-01-27T03:02:14.318Z,9.29
2019-01-27T03:04:46.310Z,9.28
2019-01-27T03:07:33.539Z,9.31
2019-01-27T03:10:08.956Z,9.25
2019-01-27T03:12:45.476Z,9.23
2019-01-27T03:15:18.861Z,9.21
2019-01-27T03:17:50.923Z,9.29
2019-01-27T03:20:22.931Z,9.27
2019-01-27T03:22:55.004Z,9.36
2019-01-27T03:25:26.969Z,9.18
2019-01-27T03:27:59.259Z,9.16
2019-01-27T03:30:31.359Z,9.14
2019-01-27T03:33:03.499Z,9.18
2019-01-27T03:35:35.522Z,9.16
2019-01-27T03:38:07.494Z,9.14
2019-01-27T03:40:40.610Z,9.07
2019-01-27T03:43:12.558Z,9.06
2019-01-27T03:45:44.677Z,9.06
2019-01-27T03:48:16.670Z,9.10
2019-01-27T03:50:48.647Z,9.11
2019-01-27T03:53:20.612Z,9.03
2019-01-27T03:55:52.534Z,9.09
2019-01-27T03:58:24.476Z,9.08
2019-01-27T04:00:56.404Z,9.01
2019-01-27T04:03:28.376Z,8.92
2019-01-27T04:06:00.431Z,8.88
2019-01-27T04:08:32.395Z,8.93
2019-01-27T04:11:04.723Z,8.84
2019-01-27T04:13:36.690Z,8.81
2019-01-27T04:16:15.581Z,8.77
2019-01-27T04:18:47.516Z,8.74
2019-01-27T04:21:19.479Z,8.69
2019-01-27T04:23:51.441Z,8.72
2019-01-27T04:26:23.382Z,8.61
2019-01-27T04:28:55.317Z,8.60
2019-01-27T04:31:27.291Z,8.56
2019-01-27T04:33:59.240Z,8.54
2019-01-27T04:36:31.153Z,8.52
2019-01-27T04:39:03.108Z,8.58
2019-01-27T04:41:35.087Z,8.60
2019-01-27T04:44:06.996Z,8.65
2019-01-27T04:46:38.962Z,8.63
2019-01-27T04:49:10.945Z,8.45
2019-01-27T04:51:42.929Z,8.49
2019-01-27T04:54:15.069Z,8.58
2019-01-27T04:56:49.058Z,8.52
2019-01-27T04:59:21.000Z,8.43
2019-01-27T05:01:52.931Z,8.55
2019-01-27T05:04:36.460Z,8.51
2019-01-27T05:07:08.514Z,8.40
2019-01-27T05:09:40.485Z,8.33
2019-01-27T05:12:12.484Z,8.28
2019-01-27T05:14:44.484Z,8.18
2019-01-27T05:17:16.410Z,8.21
2019-01-27T05:19:48.407Z,8.25
2019-01-27T05:22:20.460Z,8.31
2019-01-27T05:24:52.835Z,8.37
2019-01-27T05:27:25.423Z,8.38
2019-01-27T05:29:57.549Z,8.43
2019-01-27T05:32:29.497Z,8.35
2019-01-27T05:35:02.630Z,8.32
2019-01-27T05:37:34.597Z,8.32
2019-01-27T05:40:08.248Z,8.36
2019-01-27T05:42:40.353Z,8.17
2019-01-27T05:45:14.246Z,8.23
2019-01-27T05:47:46.405Z,8.31
2019-01-27T05:50:18.721Z,8.37
2019-01-27T05:52:50.749Z,8.32
2019-01-27T05:55:22.915Z,8.42
2019-01-27T05:57:57.406Z,8.47
2019-01-27T06:00:37.536Z,8.55
2019-01-27T06:03:12.179Z,8.62
2019-01-27T06:05:44.416Z,8.50
2019-01-27T06:08:16.575Z,8.37
2019-01-27T06:10:48.491Z,8.55
2019-01-27T06:13:20.459Z,8.61
2019-01-27T06:15:52.392Z,8.40
2019-01-27T06:18:24.380Z,8.37
2019-01-27T06:20:56.295Z,8.39
2019-01-27T06:23:28.450Z,8.39
2019-01-27T06:26:00.417Z,8.42
2019-01-27T06:28:32.377Z,8.42
2019-01-27T06:31:06.910Z,8.32
2019-01-27T06:33:45.730Z,8.36
2019-01-27T06:36:17.681Z,8.36
2019-01-27T06:38:49.600Z,8.32
2019-01-27T06:41:21.686Z,8.40
2019-01-27T06:43:53.621Z,8.42
2019-01-27T06:46:26.174Z,8.46
2019-01-27T06:48:58.803Z,8.41
2019-01-27T06:51:30.685Z,8.43
2019-01-27T06:54:02.681Z,8.41
2019-01-27T06:56:35.211Z,8.35
2019-01-27T06:59:26.026Z,8.42
2019-01-27T07:02:03.888Z,8.44
2019-01-27T07:04:40.798Z,8.51
2019-01-27T07:07:22.657Z,8.44
2019-01-27T07:10:03.552Z,8.41
2019-01-27T07:12:43.897Z,8.25
2019-01-27T07:15:35.218Z,8.24
2019-01-27T07:18:38.470Z,8.26
2019-01-27T07:21:41.658Z,8.30
2019-01-27T07:24:46.071Z,8.27
2019-01-27T07:27:43.025Z,8.26
2019-01-27T07:30:37.308Z,8.37
2019-01-27T07:33:26.741Z,8.32
2019-01-27T07:36:08.527Z,8.38
2019-01-27T07:39:07.079Z,8.42
2019-01-27T07:41:51.677Z,8.40
2019-01-27T07:44:43.904Z,8.41
2019-01-27T07:47:40.178Z,8.53
2019-01-27T07:50:33.543Z,8.47
2019-01-27T07:53:28.096Z,8.45
2019-01-27T07:56:21.961Z,8.40
2019-01-27T07:59:02.532Z,8.35
2019-01-27T08:01:44.885Z,8.27
2019-01-27T08:04:35.644Z,8.14
2019-01-27T08:07:28.641Z,8.35
2019-01-27T08:10:10.790Z,8.26
2019-01-27T08:13:04.355Z,8.43
2019-01-27T08:15:45.211Z,8.37
2019-01-27T08:18:26.582Z,8.46
2019-01-27T08:21:32.547Z,8.57
2019-01-27T08:24:31.457Z,8.69
2019-01-27T08:27:25.862Z,8.78
2019-01-27T08:30:22.467Z,8.72
2019-01-27T08:33:28.386Z,8.80
2019-01-27T08:36:17.899Z,8.65
2019-01-27T08:39:11.519Z,8.68
2019-01-27T08:42:11.381Z,8.96
2019-01-27T08:45:02.124Z,8.82
2019-01-27T08:47:34.185Z,8.85
2019-01-27T08:50:09.594Z,9.05
2019-01-27T08:52:42.607Z,9.16
2019-01-27T08:55:15.603Z,9.23
2019-01-27T08:57:48.106Z,9.18
2019-01-27T09:00:31.404Z,9.30
2019-01-27T09:03:29.386Z,9.38
2019-01-27T09:06:11.768Z,9.26
2019-01-27T09:09:19.336Z,9.55
2019-01-27T09:12:17.135Z,9.60
2019-01-27T09:15:11.032Z,9.57
2019-01-27T09:17:59.609Z,9.79
2019-01-27T09:20:49.927Z,9.90
2019-01-27T09:23:37.192Z,9.98
2019-01-27T09:26:23.042Z,10.52
2019-01-27T09:29:00.947Z,11.80
2019-01-27T09:31:58.691Z,13.28
2019-01-27T09:34:48.726Z,15.21
2019-01-27T09:37:34.962Z,17.42
2019-01-27T09:40:29.118Z,20.16
2019-01-27T09:43:25.960Z,21.45
2019-01-27T09:46:22.767Z,18.14
2019-01-27T09:49:00.261Z,16.52
2019-01-27T09:52:00.150Z,14.47
2019-01-27T09:54:58.632Z,14.98
2019-01-27T09:57:41.376Z,17.02
2019-01-27T10:00:39.065Z,16.36
2019-01-27T10:03:38.757Z,18.45
2019-01-27T10:06:35.800Z,18.41
2019-01-27T10:09:48.098Z,20.40
2019-01-27T10:12:38.879Z,22.03
2019-01-27T10:15:31.820Z,22.87
2019-01-27T10:18:21.459Z,23.40
2019-01-27T10:21:15.072Z,21.97
2019-01-27T10:24:04.404Z,21.27
2019-01-27T10:26:53.016Z,19.84
2019-01-27T10:29:43.866Z,19.43
2019-01-27T10:32:32.915Z,21.07
2019-01-27T10:35:24.332Z,21.28
2019-01-27T10:38:10.645Z,20.65
2019-01-27T10:40:53.975Z,21.49
2019-01-27T10:43:50.842Z,19.66
2019-01-27T10:46:38.469Z,19.78
2019-01-27T10:49:22.903Z,20.92
2019-01-27T10:52:11.312Z,22.14
2019-01-27T10:54:55.096Z,21.46
2019-01-27T10:57:43.532Z,21.02
2019-01-27T11:00:35.944Z,21.93
2019-01-27T11:03:40.288Z,22.02
2019-01-27T11:06:31.157Z,21.05
2019-01-27T11:09:17.951Z,22.34
2019-01-27T11:12:03.270Z,21.95
2019-01-27T11:14:57.268Z,20.12
2019-01-27T11:17:51.119Z,18.33
2019-01-27T11:20:40.623Z,17.85
2019-01-27T11:23:46.697Z,17.94
2019-01-27T11:26:36.320Z,19.16
2019-01-27T11:29:20.541Z,19.42
2019-01-27T11:32:10.749Z,18.25
2019-01-27T11:35:04.773Z,18.76
2019-01-27T11:37:54.449Z,19.75
2019-01-27T11:40:48.669Z,20.38
2019-01-27T11:43:38.190Z,22.80
2019-01-27T11:46:21.644Z,20.81
2019-01-27T11:49:12.173Z,20.01
2019-01-27T11:51:56.924Z,20.28
2019-01-27T11:54:28.929Z,19.91
2019-01-27T11:57:02.776Z,18.12
2019-01-27T11:59:34.852Z,19.51
2019-01-27T12:02:06.946Z,19.99
2019-01-27T12:04:38.907Z,18.88
2019-01-27T12:07:10.872Z,19.95
2019-01-27T12:09:42.793Z,20.35
2019-01-27T12:12:13.976Z,22.22
2019-01-27T12:14:46.523Z,20.33
2019-01-27T12:17:18.470Z,20.07
2019-01-27T12:19:50.960Z,18.51
2019-01-27T12:22:23.112Z,19.24
2019-01-27T12:24:55.048Z,17.69
2019-01-27T12:27:27.265Z,17.90
2019-01-27T12:29:59.278Z,18.84
2019-01-27T12:32:31.221Z,20.66
2019-01-27T12:35:03.229Z,20.78
2019-01-27T12:37:39.916Z,20.62
2019-01-27T12:40:15.306Z,21.22
2019-01-27T12:42:47.556Z,19.10
2019-01-27T12:45:21.570Z,17.81
2019-01-27T12:47:53.552Z,16.96
2019-01-27T12:50:26.008Z,15.91
2019-01-27T12:52:58.122Z,15.29
2019-01-27T12:55:30.575Z,14.91
2019-01-27T12:58:02.467Z,14.45
2019-01-27T13:00:47.589Z,14.19
2019-01-27T13:03:19.681Z,14.06
2019-01-27T13:05:51.805Z,15.55
2019-01-27T13:08:25.929Z,17.88
2019-01-27T13:10:58.148Z,18.39
2019-01-27T13:13:30.183Z,19.58
2019-01-27T13:16:02.217Z,19.60
2019-01-27T13:18:34.243Z,20.36
2019-01-27T13:21:06.179Z,20.73
2019-01-27T13:23:40.204Z,19.48
2019-01-27T13:26:12.296Z,18.49
2019-01-27T13:28:44.410Z,16.95
2019-01-27T13:31:16.396Z,16.65
2019-01-27T13:33:48.351Z,15.92
2019-01-27T13:36:20.787Z,15.50
2019-01-27T13:38:52.854Z,15.42
2019-01-27T13:41:24.978Z,16.00
2019-01-27T13:43:58.426Z,15.63
2019-01-27T13:46:30.425Z,15.18
2019-01-27T13:49:02.385Z,15.07
2019-01-27T13:51:34.355Z,15.27
2019-01-27T13:54:06.574Z,15.29
2019-01-27T13:56:38.556Z,15.45
2019-01-27T13:59:10.828Z,15.43
2019-01-27T14:01:42.771Z,15.42
2019-01-27T14:04:14.737Z,15.37
2019-01-27T14:06:46.748Z,15.49
2019-01-27T14:09:21.813Z,15.19
2019-01-27T14:11:54.138Z,15.07
2019-01-27T14:14:26.095Z,14.65
2019-01-27T14:16:58.051Z,14.68
2019-01-27T14:19:29.991Z,14.72
2019-01-27T14:22:03.666Z,15.19
2019-01-27T14:24:35.686Z,14.96
2019-01-27T14:27:07.672Z,15.24
2019-01-27T14:29:39.728Z,15.39
2019-01-27T14:32:11.648Z,15.46
2019-01-27T14:34:43.932Z,15.45
2019-01-27T14:37:15.899Z,15.05
2019-01-27T14:39:47.815Z,14.47
2019-01-27T14:42:19.786Z,14.77
2019-01-27T14:44:51.779Z,14.36
2019-01-27T14:47:26.507Z,14.22
2019-01-27T14:49:58.443Z,14.15
2019-01-27T14:52:31.563Z,14.20
2019-01-27T14:55:04.094Z,14.32
2019-01-27T14:57:36.165Z,13.90
2019-01-27T15:00:13.567Z,13.76
2019-01-27T15:02:45.631Z,13.91
2019-01-27T15:05:17.688Z,14.02
2019-01-27T15:07:49.788Z,13.93
2019-01-27T15:10:22.022Z,13.99
2019-01-27T15:12:54.457Z,14.10
2019-01-27T15:15:26.716Z,14.17
2019-01-27T15:18:05.246Z,14.11
2019-01-27T15:21:00.390Z,14.12
2019-01-27T15:23:33.282Z,14.05
2019-01-27T15:26:05.409Z,14.47
2019-01-27T15:28:37.482Z,14.68
2019-01-27T15:31:09.511Z,14.69
2019-01-27T15:33:41.435Z,14.61
2019-01-27T15:47:08.116Z,14.00
2019-01-27T15:49:43.027Z,14.05
2019-01-27T15:52:17.474Z,14.02
2019-01-27T15:54:49.421Z,14.15
2019-01-27T15:57:21.758Z,14.11
2019-01-27T15:59:54.302Z,13.98
2019-01-27T16:02:27.490Z,13.99
2019-01-27T16:04:59.776Z,13.98
2019-01-27T16:07:32.610Z,13.86
2019-01-27T16:10:06.878Z,13.99
2019-01-27T16:12:38.987Z,13.79
2019-01-27T16:15:13.269Z,13.79
2019-01-27T16:17:45.213Z,13.72
2019-01-27T16:20:18.164Z,13.57
2019-01-27T16:23:18.173Z,13.62
2019-01-27T16:25:50.323Z,13.52
2019-01-27T16:28:22.491Z,13.50
2019-01-27T16:31:03.826Z,13.50
2019-01-27T16:33:44.566Z,13.48
2019-01-27T16:36:16.476Z,13.53
2019-01-27T16:38:48.409Z,13.42
2019-01-27T16:41:20.335Z,13.31
2019-01-27T16:43:53.063Z,13.18
2019-01-27T16:46:25.220Z,13.07
2019-01-27T16:49:02.870Z,13.00
2019-01-27T16:51:31.511Z,12.92
2019-01-27T16:54:05.975Z,12.89
2019-01-27T16:56:38.307Z,12.85
2019-01-27T16:59:10.803Z,12.88
2019-01-27T17:01:43.096Z,12.82
2019-01-27T17:04:15.379Z,12.74
2019-01-27T17:06:48.192Z,12.76
2019-01-27T17:09:20.211Z,12.80
2019-01-27T17:11:53.149Z,12.70
2019-01-27T17:14:25.318Z,12.68
2019-01-27T17:16:57.388Z,12.74
2019-01-27T17:19:29.411Z,12.66
2019-01-27T17:22:01.462Z,12.55
2019-01-27T17:24:33.477Z,12.57
2019-01-27T17:27:07.471Z,12.53
2019-01-27T17:29:39.487Z,12.44
2019-01-27T17:32:12.919Z,12.46
2019-01-27T17:34:45.023Z,12.33
2019-01-27T17:37:16.998Z,12.37
2019-01-27T17:39:49.109Z,12.30
2019-01-27T17:42:21.317Z,12.24
2019-01-27T17:44:53.300Z,12.20
2019-01-27T17:47:29.400Z,12.17
2019-01-27T17:50:01.890Z,12.14
2019-01-27T17:52:35.355Z,12.07
2019-01-27T17:55:33.084Z,12.07
2019-01-27T17:58:19.797Z,11.89
2019-01-27T18:01:12.157Z,11.78
2019-01-27T18:03:53.421Z,11.62
2019-01-27T18:06:49.916Z,11.48
2019-01-27T18:09:46.897Z,11.41
2019-01-27T18:12:33.230Z,11.30
2019-01-27T18:15:06.540Z,11.26
2019-01-27T18:17:38.533Z,11.19
2019-01-27T18:20:13.442Z,11.15
2019-01-27T18:22:45.400Z,11.08
2019-01-27T18:25:17.540Z,10.99
2019-01-27T18:27:49.647Z,10.96
2019-01-27T18:30:23.984Z,10.90
2019-01-27T18:32:57.183Z,10.88
2019-01-27T18:35:29.294Z,10.77
2019-01-27T18:38:01.483Z,10.69
2019-01-27T18:40:33.431Z,10.69
2019-01-27T18:43:06.961Z,10.65
2019-01-27T18:45:39.022Z,10.56
2019-01-27T18:48:11.445Z,10.49
2019-01-27T18:50:43.605Z,10.50
2019-01-27T18:53:49.850Z,10.45
2019-01-27T18:56:30.231Z,10.39
2019-01-27T18:59:07.981Z,10.41
2019-01-27T19:02:13.938Z,10.35
2019-01-27T19:05:04.590Z,10.27
2019-01-27T19:07:44.904Z,10.21
2019-01-27T19:10:35.910Z,10.15
2019-01-27T19:13:17.754Z,10.12
2019-01-27T19:16:14.512Z,10.01
2019-01-27T19:19:01.586Z,9.94
2019-01-27T19:21:53.441Z,9.90
2019-01-27T19:24:53.415Z,9.80
2019-01-27T19:27:50.435Z,9.83
2019-01-27T19:30:47.359Z,9.83
2019-01-27T19:33:36.723Z,9.79
2019-01-27T19:36:27.679Z,9.73
2019-01-27T19:39:27.717Z,9.66
2019-01-27T19:42:15.419Z,9.59
2019-01-27T19:45:11.067Z,9.50
2019-01-27T19:47:49.499Z,9.53
2019-01-27T19:50:42.759Z,9.58
2019-01-27T19:53:32.058Z,9.53
2019-01-27T19:56:23.931Z,9.49
2019-01-27T19:59:18.061Z,9.47
2019-01-27T20:02:10.648Z,9.48
2019-01-27T20:04:53.965Z,9.47
2019-01-27T20:07:44.813Z,9.39
2019-01-27T20:10:35.928Z,9.37
2019-01-27T20:13:17.121Z,9.22
2019-01-27T20:16:15.663Z,9.17
2019-01-27T20:19:06.526Z,9.15
2019-01-27T20:22:14.038Z,9.12
2019-01-27T20:25:03.489Z,8.88
2019-01-27T20:27:54.470Z,8.79
2019-01-27T20:30:48.577Z,8.57
2019-01-27T20:33:31.498Z,8.38
2019-01-27T20:36:17.527Z,8.25
2019-01-27T20:39:17.378Z,8.13
2019-01-27T20:42:11.532Z,8.08
2019-01-27T20:45:18.744Z,8.12
2019-01-27T20:47:58.429Z,7.99
2019-01-27T20:51:01.336Z,7.92
2019-01-27T20:53:52.331Z,7.95
2019-01-27T20:56:31.571Z,7.87
2019-01-27T20:59:31.617Z,7.55
2019-01-27T21:02:39.838Z,7.67
2019-01-27T21:08:16.551Z,7.57
2019-01-27T21:11:15.476Z,7.66
2019-01-27T21:13:56.039Z,7.65
2019-01-27T21:16:48.302Z,7.63
2019-01-27T21:19:36.248Z,7.59
2019-01-27T21:22:08.949Z,7.64
2019-01-27T21:25:00.760Z,7.68
2019-01-27T21:27:45.410Z,7.65
2019-01-27T21:33:28.152Z,7.57
2019-01-27T21:36:11.047Z,7.47
2019-01-27T21:38:44.659Z,7.45
2019-01-27T21:41:18.777Z,7.51
2019-01-27T21:43:52.105Z,7.43
2019-01-27T21:46:26.189Z,7.34
2019-01-27T21:49:00.443Z,7.18
2019-01-27T21:51:35.050Z,7.20
2019-01-27T21:54:09.771Z,7.08
2019-01-27T21:56:45.114Z,7.03
2019-01-27T21:59:19.838Z,6.90
2019-01-27T22:01:56.409Z,6.76
2019-01-27T22:04:29.130Z,6.80
2019-01-27T22:07:01.087Z,6.70
2019-01-27T22:09:51.440Z,6.69
2019-01-27T22:12:26.032Z,6.74
2019-01-27T22:14:59.273Z,6.64
2019-01-27T22:17:40.158Z,6.68
2019-01-27T22:20:14.691Z,6.68
2019-01-27T22:22:46.710Z,6.69
2019-01-27T22:25:18.756Z,6.74
2019-01-27T22:27:51.688Z,6.67
2019-01-27T22:30:23.865Z,6.79
2019-01-27T22:32:55.813Z,6.68
2019-01-27T22:35:28.901Z,6.67
2019-01-27T22:38:00.835Z,6.73
2019-01-27T22:40:33.208Z,6.51
2019-01-27T22:43:05.538Z,6.78
2019-01-27T22:45:37.603Z,6.92
2019-01-27T22:48:09.568Z,7.06
2019-01-27T22:50:41.530Z,7.22
2019-01-27T22:53:13.571Z,7.14
2019-01-27T22:55:45.528Z,7.27
2019-01-27T22:58:17.794Z,7.37
2019-01-27T23:01:07.472Z,7.47
2019-01-27T23:03:41.698Z,7.54
2019-01-27T23:06:13.886Z,7.38
2019-01-27T23:08:45.846Z,7.49
2019-01-27T23:11:20.975Z,7.42
2019-01-27T23:13:52.942Z,7.12
2019-01-27T23:16:26.498Z,7.12
2019-01-27T23:18:59.660Z,7.11
2019-01-27T23:21:31.601Z,7.17
2019-01-27T23:24:04.960Z,7.25
2019-01-27T23:26:39.127Z,7.39
2019-01-27T23:29:12.896Z,7.55
2019-01-27T23:31:44.812Z,7.79
2019-01-27T23:34:17.150Z,7.74
2019-01-27T23:36:49.223Z,7.86
2019-01-27T23:39:21.173Z,7.90
2019-01-27T23:41:53.267Z,7.85
2019-01-27T23:44:25.370Z,7.61
2019-01-27T23:46:57.296Z,7.70
2019-01-27T23:49:29.240Z,7.68
2019-01-27T23:52:01.205Z,7.72
2019-01-27T23:54:35.316Z,7.81
2019-01-27T23:57:07.331Z,7.87
2019-01-27T23:59:39.261Z,7.64
